Time;durP1;ratioP1;P1;durP2;ratioP2;P2;SDS_P1;SDS_P2;PMS_P1;PMS_P2;Temp;Humidity;BMP_temperature;BMP_pressure;BME280_temperature;BME280_humidity;BME280_pressure;Samples;Min_cycle;Max_cycle;Signal;HPM_P1;HPM_P2
2022/06/05 00:00:21;;;;;;;3.17;2.83;;;21.50;99.90;;;;;;5116537;28;20103;-76
2022/06/05 00:02:58;;;;;;;5.10;3.10;;;21.50;99.90;;;;;;5116121;28;20104;-76
2022/06/05 00:05:56;;;;;;;4.28;3.08;;;21.50;99.90;;;;;;5097886;28;20034;-76
2022/06/05 00:08:29;;;;;;;4.22;3.22;;;21.50;99.90;;;;;;5009232;28;20044;-75
2022/06/05 00:10:57;;;;;;;5.72;3.78;;;21.50;99.90;;;;;;5098101;28;20054;-75
2022/06/05 00:13:37;;;;;;;4.28;3.45;;;21.40;99.90;;;;;;5116513;28;20075;-76
2022/06/05 00:16:03;;;;;;;5.78;3.42;;;21.50;99.90;;;;;;5116543;28;20110;-75
2022/06/05 00:18:33;;;;;;;3.55;3.22;;;21.30;99.90;;;;;;5098288;28;20028;-75
2022/06/05 00:20:58;;;;;;;3.72;3.25;;;21.30;99.90;;;;;;5115376;28;20531;-75
2022/06/05 00:23:24;;;;;;;6.03;3.40;;;21.40;99.90;;;;;;5116097;28;20111;-76
2022/06/05 00:26:08;;;;;;;5.38;3.70;;;21.40;99.90;;;;;;5097118;28;20040;-75
2022/06/05 00:29:08;;;;;;;3.97;3.60;;;21.40;99.90;;;;;;5097922;28;20076;-75
2022/06/05 00:31:42;;;;;;;5.80;3.63;;;21.40;99.90;;;;;;5097868;28;20114;-75
2022/06/05 00:34:08;;;;;;;4.65;3.45;;;21.40;99.90;;;;;;5097892;28;20053;-75
2022/06/05 00:36:41;;;;;;;5.00;4.07;;;21.40;99.90;;;;;;5097927;28;20028;-74
2022/06/05 00:39:35;;;;;;;3.95;3.60;;;21.40;99.90;;;;;;5098089;28;20131;-75
2022/06/05 00:42:06;;;;;;;6.60;3.67;;;21.40;99.90;;;;;;5097353;28;20024;-74
2022/06/05 00:44:42;;;;;;;4.00;3.40;;;21.40;99.90;;;;;;5116269;28;20031;-74
2022/06/05 00:47:11;;;;;;;4.35;3.55;;;21.50;99.90;;;;;;5097885;28;20028;-73
2022/06/05 00:49:51;;;;;;;3.95;3.50;;;21.40;99.90;;;;;;5097754;28;20046;-73
2022/06/05 00:52:19;;;;;;;5.25;3.70;;;21.40;99.90;;;;;;5097676;28;20024;-73
2022/06/05 00:54:45;;;;;;;4.13;3.63;;;21.40;99.90;;;;;;5113801;28;20114;-73
2022/06/05 00:57:13;;;;;;;4.88;3.80;;;21.40;99.90;;;;;;5115682;28;20115;-73
2022/06/05 00:59:41;;;;;;;5.00;3.50;;;21.40;99.90;;;;;;5115504;28;20028;-75
2022/06/05 01:02:12;;;;;;;4.05;3.60;;;21.40;99.90;;;;;;5097571;28;20111;-76
2022/06/05 01:04:41;;;;;;;5.53;3.28;;;21.40;99.90;;;;;;5115786;28;20030;-76
2022/06/05 01:07:07;;;;;;;4.00;3.60;;;21.40;99.90;;;;;;5097562;28;20380;-76
2022/06/05 01:09:33;;;;;;;3.90;3.35;;;21.40;99.90;;;;;;5097452;28;20055;-76
2022/06/05 01:12:10;;;;;;;4.45;3.78;;;21.40;99.90;;;;;;5096906;28;20024;-76
2022/06/05 01:15:13;;;;;;;4.88;3.85;;;21.30;99.90;;;;;;5113356;28;20052;-76
2022/06/05 01:17:58;;;;;;;5.85;4.10;;;21.30;99.90;;;;;;5114357;28;20103;-76
2022/06/05 01:20:52;;;;;;;4.35;3.72;;;21.30;99.90;;;;;;5113168;28;20042;-76
2022/06/05 01:23:44;;;;;;;5.53;3.65;;;21.30;99.90;;;;;;5114032;28;20019;-76
2022/06/05 01:26:24;;;;;;;4.63;3.80;;;21.30;99.90;;;;;;5111565;28;20040;-76
2022/06/05 01:29:09;;;;;;;6.28;4.88;;;21.30;99.90;;;;;;5114967;28;20098;-76
2022/06/05 01:31:43;;;;;;;5.40;4.28;;;21.30;99.90;;;;;;5115423;28;20024;-76
2022/06/05 01:34:25;;;;;;;6.88;3.92;;;21.20;99.90;;;;;;5114252;28;20027;-77
2022/06/05 01:37:02;;;;;;;;;;;21.20;99.90;;;;;;5114236;28;20456;-77
2022/06/05 01:39:38;;;;;;;6.78;4.43;;;21.10;99.90;;;;;;5115406;28;20003;-76
2022/06/05 01:42:11;;;;;;;7.38;4.43;;;21.10;99.90;;;;;;5115074;28;20023;-76
2022/06/05 01:44:44;;;;;;;7.22;4.47;;;21.10;99.90;;;;;;5114129;28;20030;-76
2022/06/05 01:47:24;;;;;;;7.60;4.70;;;21.00;99.90;;;;;;5114008;28;20023;-76
2022/06/05 01:49:59;;;;;;;4.53;4.13;;;21.00;99.90;;;;;;5113298;28;20026;-76
2022/06/05 01:52:40;;;;;;;7.80;5.15;;;21.00;99.90;;;;;;5113415;28;20032;-76
2022/06/05 01:55:12;;;;;;;7.97;4.88;;;21.00;99.90;;;;;;5113117;28;20126;-76
2022/06/05 01:57:38;;;;;;;6.28;4.95;;;20.90;99.90;;;;;;5113490;28;20490;-75
2022/06/05 02:00:16;;;;;;;6.40;4.97;;;20.80;99.90;;;;;;5113097;28;20063;-77
2022/06/05 02:03:03;;;;;;;6.50;5.00;;;20.60;99.90;;;;;;5113398;28;20030;-79
2022/06/05 02:05:43;;;;;;;6.10;4.90;;;20.50;99.90;;;;;;5114779;28;20038;-77
2022/06/05 02:08:27;;;;;;;9.35;5.40;;;20.30;99.90;;;;;;5114753;28;20024;-76
2022/06/05 02:10:58;;;;;;;10.70;5.60;;;20.10;99.90;;;;;;5114034;28;20031;-76
2022/06/05 02:13:23;;;;;;;8.50;5.75;;;20.10;99.90;;;;;;5114342;28;20118;-76
2022/06/05 02:15:49;;;;;;;5.93;5.32;;;20.10;99.90;;;;;;5095669;28;20464;-76
2022/06/05 02:18:15;;;;;;;10.05;6.05;;;20.10;99.90;;;;;;5096219;28;20030;-76
2022/06/05 02:20:43;;;;;;;7.47;5.25;;;20.10;99.90;;;;;;5096568;28;20118;-76
2022/06/05 02:23:18;;;;;;;8.55;5.72;;;20.10;99.90;;;;;;5096236;28;20024;-75
2022/06/05 02:25:44;;;;;;;8.35;5.80;;;20.00;99.90;;;;;;5114179;28;20040;-78
2022/06/05 02:28:15;;;;;;;8.02;6.35;;;20.00;99.90;;;;;;5095981;28;20030;-75
2022/06/05 02:31:08;;;;;;;8.65;6.03;;;19.90;99.90;;;;;;5096067;28;20176;-76
2022/06/05 02:33:52;;;;;;;8.82;5.85;;;20.00;99.90;;;;;;5095727;28;20415;-75
2022/06/05 02:36:29;;;;;;;9.55;6.55;;;19.90;99.90;;;;;;5114164;28;20024;-75
2022/06/05 02:39:07;;;;;;;9.93;5.95;;;19.90;99.90;;;;;;5113307;28;20389;-75
2022/06/05 02:42:09;;;;;;;7.80;6.10;;;19.90;99.90;;;;;;5113961;28;20030;-76
2022/06/05 02:44:53;;;;;;;8.38;5.70;;;19.90;99.90;;;;;;5114276;28;20053;-75
2022/06/05 02:47:34;;;;;;;7.47;6.10;;;19.90;99.90;;;;;;5095782;28;20035;-76
2022/06/05 02:50:41;;;;;;;8.18;5.88;;;20.00;99.90;;;;;;5094928;28;20024;-75
2022/06/05 02:53:08;;;;;;;6.78;5.45;;;20.00;99.90;;;;;;5081356;28;20042;-75
2022/06/05 02:55:34;;;;;;;6.10;5.20;;;20.00;99.90;;;;;;5113583;28;20077;-75
2022/06/05 02:58:00;;;;;;;9.68;6.40;;;20.00;99.90;;;;;;5113050;28;20015;-73
2022/06/05 03:00:30;;;;;;;8.57;6.60;;;20.10;99.90;;;;;;5095475;28;20469;-74
2022/06/05 03:05:40;;;;;;;8.20;5.93;;;20.10;99.90;;;;;;5113331;28;20258;-74
2022/06/05 03:08:07;;;;;;;8.38;5.72;;;20.10;99.90;;;;;;5094613;28;20130;-74
2022/06/05 03:10:33;;;;;;;7.47;6.10;;;20.10;99.90;;;;;;5095099;28;20024;-74
2022/06/05 03:13:01;;;;;;;9.05;5.88;;;20.10;99.90;;;;;;5096912;28;20044;-74
2022/06/05 03:15:27;;;;;;;6.35;5.40;;;20.10;99.90;;;;;;5113366;28;20103;-74
2022/06/05 03:17:53;;;;;;;7.13;5.45;;;20.20;99.90;;;;;;5111926;28;20031;-74
2022/06/05 03:20:18;;;;;;;10.18;6.30;;;20.10;99.90;;;;;;5112047;28;20028;-74
2022/06/05 03:22:44;;;;;;;8.02;6.05;;;20.10;99.90;;;;;;5113344;28;20130;-74
2022/06/05 03:25:16;;;;;;;9.02;5.97;;;20.00;99.90;;;;;;5112341;28;20161;-75
2022/06/05 03:27:41;;;;;;;6.68;5.68;;;19.80;99.90;;;;;;5112097;28;20027;-74
2022/06/05 03:30:08;;;;;;;7.68;5.95;;;19.80;99.90;;;;;;5111342;28;20031;-74
2022/06/05 03:32:33;;;;;;;8.88;5.50;;;19.80;99.90;;;;;;5113160;28;20028;-74
2022/06/05 03:34:59;;;;;;;7.90;5.57;;;19.90;99.90;;;;;;5112525;28;20039;-74
2022/06/05 03:37:25;;;;;;;8.40;6.70;;;19.90;99.90;;;;;;5111654;28;20028;-74
2022/06/05 03:39:50;;;;;;;9.07;6.00;;;19.90;99.90;;;;;;5111359;28;20023;-75
2022/06/05 03:42:16;;;;;;;10.23;5.60;;;19.90;99.90;;;;;;5113197;28;20034;-74
2022/06/05 03:44:43;;;;;;;7.53;5.60;;;20.00;99.90;;;;;;5113024;28;20070;-74
2022/06/05 03:47:10;;;;;;;8.95;5.88;;;20.00;99.90;;;;;;5111269;28;20472;-75
2022/06/05 03:49:36;;;;;;;10.27;6.32;;;20.00;99.90;;;;;;5112942;28;20059;-74
2022/06/05 03:52:06;;;;;;;9.60;6.18;;;20.00;99.90;;;;;;5110945;28;20414;-74
2022/06/05 03:54:33;;;;;;;9.73;6.03;;;20.10;99.90;;;;;;5113011;28;20039;-74
2022/06/05 03:57:00;;;;;;;9.98;6.05;;;20.10;99.90;;;;;;5112389;28;20024;-74
2022/06/05 03:59:26;;;;;;;8.90;6.28;;;20.10;99.90;;;;;;5112619;28;20187;-75
2022/06/05 04:01:51;;;;;;;8.35;6.65;;;20.10;99.90;;;;;;5112565;28;20059;-75
2022/06/05 04:04:17;;;;;;;8.07;6.53;;;20.10;99.90;;;;;;5112910;28;20034;-75
2022/06/05 04:06:43;;;;;;;10.30;6.30;;;20.00;99.90;;;;;;5112830;28;20463;-75
2022/06/05 04:09:09;;;;;;;8.20;6.35;;;20.00;99.90;;;;;;5110842;28;20365;-75
2022/06/05 04:11:36;;;;;;;11.93;6.72;;;20.00;99.90;;;;;;5112830;28;20463;-75
2022/06/05 04:14:03;;;;;;;8.05;6.70;;;20.00;99.90;;;;;;5110478;28;20055;-74
2022/06/05 04:16:31;;;;;;;8.95;6.75;;;19.90;99.90;;;;;;5111709;28;20160;-75
2022/06/05 04:18:58;;;;;;;9.00;6.30;;;20.00;99.90;;;;;;5111060;28;20106;-75
2022/06/05 04:21:28;;;;;;;12.48;7.03;;;19.90;99.90;;;;;;5112756;28;20528;-75
2022/06/05 04:23:54;;;;;;;8.98;6.68;;;20.00;99.90;;;;;;5110780;28;20488;-75
2022/06/05 04:26:23;;;;;;;7.88;6.53;;;19.90;99.90;;;;;;5112673;28;20457;-75
2022/06/05 04:28:49;;;;;;;10.90;6.70;;;20.00;99.90;;;;;;5114904;28;20468;-75
2022/06/05 04:31:25;;;;;;;11.48;7.07;;;20.00;99.90;;;;;;5114328;28;20024;-75
2022/06/05 04:33:52;;;;;;;11.32;6.70;;;20.00;99.90;;;;;;5115146;28;20020;-75
2022/06/05 04:36:18;;;;;;;10.23;6.63;;;20.00;99.90;;;;;;5115001;28;20031;-74
2022/06/05 04:38:44;;;;;;;7.88;6.50;;;19.90;99.90;;;;;;5114974;28;20031;-75
2022/06/05 04:41:10;;;;;;;9.73;6.85;;;19.90;99.90;;;;;;5114475;28;20027;-74
2022/06/05 04:43:37;;;;;;;11.98;7.13;;;19.90;99.90;;;;;;5115857;28;20418;-74
2022/06/05 04:46:03;;;;;;;9.70;6.60;;;19.90;99.90;;;;;;5114388;28;20043;-75
2022/06/05 04:48:29;;;;;;;9.57;6.57;;;19.90;99.90;;;;;;5115679;28;20023;-75
2022/06/05 04:50:55;;;;;;;9.15;6.82;;;19.90;99.90;;;;;;5115594;28;20342;-75
2022/06/05 04:53:20;;;;;;;10.13;7.05;;;19.90;99.90;;;;;;5114683;28;20426;-75
2022/06/05 04:55:46;;;;;;;11.50;7.35;;;19.80;99.90;;;;;;5114389;28;20051;-74
2022/06/05 04:58:11;;;;;;;8.80;7.00;;;19.80;99.90;;;;;;5115343;28;20030;-74
2022/06/05 05:00:38;;;;;;;8.25;6.75;;;19.80;99.90;;;;;;5114287;28;20552;-75
2022/06/05 05:03:04;;;;;;;9.27;6.43;;;19.90;99.90;;;;;;5115299;27;20464;-75
2022/06/05 05:05:30;;;;;;;8.32;6.18;;;19.80;99.90;;;;;;5114702;28;20035;-74
2022/06/05 05:07:55;;;;;;;9.27;6.95;;;19.80;99.90;;;;;;5113976;28;20473;-75
2022/06/05 05:10:21;;;;;;;8.30;7.07;;;19.90;99.90;;;;;;5116004;27;20488;-75
2022/06/05 05:12:47;;;;;;;8.73;6.72;;;19.80;99.90;;;;;;5114246;28;20452;-74
2022/06/05 05:15:13;;;;;;;8.18;6.72;;;19.80;99.90;;;;;;5115041;28;20468;-74
2022/06/05 05:17:38;;;;;;;9.85;7.60;;;19.80;99.90;;;;;;5096999;28;20026;-74
2022/06/05 05:20:04;;;;;;;7.78;6.68;;;19.80;99.90;;;;;;5115260;28;20023;-74
2022/06/05 05:22:37;;;;;;;7.95;6.95;;;19.90;99.90;;;;;;5097019;28;20032;-75
2022/06/05 05:25:05;;;;;;;10.20;7.10;;;19.90;99.90;;;;;;5114952;28;20028;-74
2022/06/05 05:27:31;;;;;;;8.52;7.07;;;19.90;99.90;;;;;;5115436;28;20066;-74
2022/06/05 05:29:56;;;;;;;8.70;7.13;;;19.90;99.90;;;;;;5096536;28;20051;-75
2022/06/05 05:32:22;;;;;;;7.22;6.32;;;19.80;99.90;;;;;;5115188;28;20024;-74
2022/06/05 05:34:47;;;;;;;9.82;7.43;;;19.80;99.90;;;;;;5096937;28;20040;-74
2022/06/05 05:37:13;;;;;;;10.48;7.20;;;19.80;99.90;;;;;;5096410;28;20023;-74
2022/06/05 05:42:23;;;;;;;12.85;7.90;;;19.80;99.90;;;;;;5115103;28;20062;-74
2022/06/05 05:44:51;;;;;;;10.75;8.05;;;19.80;99.90;;;;;;5096730;28;20062;-74
2022/06/05 05:47:29;;;;;;;10.82;7.20;;;19.80;99.90;;;;;;5114481;28;20518;-75
2022/06/05 05:50:01;;;;;;;7.70;6.90;;;19.80;99.90;;;;;;5114911;28;20020;-74
2022/06/05 05:52:27;;;;;;;10.27;7.97;;;19.90;99.90;;;;;;5114671;28;20090;-74
2022/06/05 05:54:54;;;;;;;12.80;7.38;;;19.90;99.90;;;;;;5096156;28;20036;-74
2022/06/05 05:57:20;;;;;;;11.43;7.72;;;20.00;99.90;;;;;;5095924;28;20031;-74
2022/06/05 05:59:46;;;;;;;9.38;7.63;;;20.00;99.90;;;;;;5096451;28;20396;-75
2022/06/05 06:02:16;;;;;;;8.75;7.20;;;20.10;99.90;;;;;;5095937;28;20091;-74
2022/06/05 06:04:42;;;;;;;12.20;8.00;;;20.20;99.90;;;;;;5114708;28;20073;-75
2022/06/05 06:07:09;;;;;;;9.00;7.65;;;20.20;99.90;;;;;;5114031;28;20495;-75
2022/06/05 06:09:35;;;;;;;11.02;7.55;;;20.30;99.90;;;;;;5114714;28;20457;-75
2022/06/05 06:12:01;;;;;;;10.05;7.43;;;20.30;99.90;;;;;;5113892;28;20461;-75
2022/06/05 06:14:27;;;;;;;9.75;7.85;;;20.30;99.90;;;;;;5108784;28;20131;-74
2022/06/05 06:16:53;;;;;;;11.30;7.95;;;20.40;99.90;;;;;;5114449;28;20043;-74
2022/06/05 06:19:19;;;;;;;9.88;8.18;;;20.40;99.90;;;;;;5113789;28;20100;-74
2022/06/05 06:21:44;;;;;;;10.55;7.75;;;20.40;99.90;;;;;;5114288;28;20465;-74
2022/06/05 06:24:11;;;;;;;12.05;8.23;;;20.30;99.90;;;;;;5113889;28;20472;-74
2022/06/05 06:26:38;;;;;;;9.70;8.27;;;20.30;99.90;;;;;;5113017;28;20031;-74
2022/06/05 06:29:03;;;;;;;13.15;7.47;;;20.30;99.90;;;;;;5112256;28;20499;-74
2022/06/05 06:31:29;;;;;;;10.85;8.85;;;20.30;99.90;;;;;;5112814;28;20028;-75
2022/06/05 06:33:55;;;;;;;11.18;8.05;;;20.30;99.90;;;;;;5112938;28;20031;-75
2022/06/05 06:36:21;;;;;;;11.80;7.35;;;20.20;99.90;;;;;;5112116;28;20072;-74
2022/06/05 06:38:47;;;;;;;9.48;7.72;;;20.30;99.90;;;;;;5112833;28;20032;-74
2022/06/05 06:41:16;;;;;;;11.30;7.03;;;20.30;99.90;;;;;;5117363;27;20019;-74
2022/06/05 06:43:43;;;;;;;9.63;7.35;;;20.40;99.90;;;;;;5118223;27;20422;-73
2022/06/05 06:46:09;;;;;;;8.65;6.75;;;20.50;99.90;;;;;;5121526;27;20365;-74
2022/06/05 06:48:35;;;;;;;8.48;6.47;;;20.50;99.90;;;;;;5122172;27;20421;-75
2022/06/05 06:51:02;;;;;;;9.25;6.95;;;20.50;99.90;;;;;;5101681;28;20566;-75
2022/06/05 06:53:30;;;;;;;7.13;6.40;;;20.50;99.90;;;;;;5102196;28;20027;-74
2022/06/05 06:55:56;;;;;;;9.48;6.90;;;20.50;99.90;;;;;;5101013;28;20046;-74
2022/06/05 06:58:22;;;;;;;8.77;6.55;;;20.50;99.90;;;;;;5100513;28;20028;-74
2022/06/05 07:00:48;;;;;;;9.45;6.90;;;20.60;99.90;;;;;;5103725;28;20020;-75
2022/06/05 07:03:15;;;;;;;8.85;6.53;;;20.50;99.90;;;;;;5100228;28;20027;-74
2022/06/05 07:05:41;;;;;;;10.27;6.40;;;20.50;99.90;;;;;;5108583;27;20027;-74
2022/06/05 07:08:08;;;;;;;12.30;7.05;;;20.50;99.90;;;;;;5112905;28;20038;-75
2022/06/05 07:10:34;;;;;;;10.80;6.75;;;20.50;99.90;;;;;;5111699;28;20023;-74
2022/06/05 07:13:00;;;;;;;11.57;6.95;;;20.50;99.90;;;;;;5100113;28;20047;-74
2022/06/05 07:15:33;;;;;;;7.45;6.65;;;20.50;99.90;;;;;;5100190;28;20067;-74
2022/06/05 07:18:08;;;;;;;7.45;6.45;;;20.60;99.90;;;;;;5101843;28;20043;-74
2022/06/05 07:20:36;;;;;;;11.15;6.40;;;20.60;99.90;;;;;;5100998;28;20070;-74
2022/06/05 07:23:02;;;;;;;10.05;6.28;;;20.50;99.90;;;;;;5099528;28;20444;-75
2022/06/05 07:25:29;;;;;;;9.27;6.10;;;20.50;99.90;;;;;;5101825;28;20439;-74
2022/06/05 07:27:55;;;;;;;9.60;5.57;;;20.60;99.90;;;;;;5100755;28;20016;-75
2022/06/05 07:30:21;;;;;;;7.20;6.50;;;20.50;99.90;;;;;;5100064;28;20183;-74
2022/06/05 07:32:47;;;;;;;7.88;6.38;;;20.50;99.90;;;;;;5091658;28;20028;-75
2022/06/05 07:35:13;;;;;;;9.50;5.97;;;20.60;99.90;;;;;;5091851;28;20470;-75
2022/06/05 07:37:40;;;;;;;8.07;5.75;;;20.60;99.90;;;;;;5091346;28;20380;-75
2022/06/05 07:40:06;;;;;;;6.75;5.43;;;20.60;99.90;;;;;;5091352;28;20028;-75
2022/06/05 07:42:35;;;;;;;6.25;5.65;;;20.70;99.90;;;;;;5122938;28;20055;-75
2022/06/05 07:45:00;;;;;;;6.22;5.35;;;20.70;99.90;;;;;;5118360;28;20027;-75
2022/06/05 07:47:26;;;;;;;6.20;5.60;;;20.70;99.90;;;;;;5112729;28;20023;-75
2022/06/05 07:49:52;;;;;;;8.48;5.35;;;20.80;99.90;;;;;;5111691;28;20035;-75
2022/06/05 07:55:03;;;;;;;7.28;5.72;;;20.90;99.90;;;;;;5112646;28;20076;-74
2022/06/05 07:57:28;;;;;;;8.75;5.57;;;21.00;99.90;;;;;;5111598;28;20473;-75
2022/06/05 07:59:54;;;;;;;7.93;5.78;;;21.10;99.90;;;;;;5111809;28;20020;-75
2022/06/05 08:02:25;;;;;;;6.85;5.22;;;21.20;99.90;;;;;;5129779;27;20035;-75
2022/06/05 08:04:52;;;;;;;7.38;5.13;;;21.20;99.90;;;;;;5136171;27;20051;-75
2022/06/05 08:07:21;;;;;;;6.90;5.32;;;21.20;99.90;;;;;;5135388;27;20467;-75
2022/06/05 08:09:47;;;;;;;11.57;6.40;;;21.20;99.90;;;;;;5135905;27;20079;-75
2022/06/05 08:12:14;;;;;;;9.55;5.43;;;21.20;99.90;;;;;;5116277;27;20032;-74
2022/06/05 08:14:42;;;;;;;7.72;5.63;;;21.20;99.90;;;;;;5116580;28;20039;-74
2022/06/05 08:17:11;;;;;;;9.00;5.93;;;21.30;99.90;;;;;;5115829;28;20042;-75
2022/06/05 08:19:39;;;;;;;10.20;5.60;;;21.40;99.90;;;;;;5116504;28;20481;-74
2022/06/05 08:22:05;;;;;;;6.15;5.55;;;21.40;99.90;;;;;;5133171;27;20076;-75
2022/06/05 08:24:31;;;;;;;8.13;5.55;;;21.40;99.90;;;;;;5118055;27;20031;-74
2022/06/05 08:26:56;;;;;;;6.32;5.32;;;21.50;99.90;;;;;;5118377;27;20037;-75
2022/06/05 08:29:22;;;;;;;7.72;5.43;;;21.50;99.90;;;;;;5112144;28;20016;-75
2022/06/05 08:31:48;;;;;;;6.00;5.15;;;21.60;99.90;;;;;;5111847;27;20034;-75
2022/06/05 08:34:14;;;;;;;6.40;5.40;;;21.60;99.90;;;;;;5136183;27;20116;-74
2022/06/05 08:36:40;;;;;;;8.18;5.30;;;21.60;99.90;;;;;;5118504;27;20083;-73
2022/06/05 08:42:16;;;;;;;9.23;5.70;;;21.60;99.90;;;;;;5121039;27;20082;-75
2022/06/05 08:44:56;;;;;;;7.75;5.05;;;21.60;99.90;;;;;;5115940;28;20028;-74
2022/06/05 08:47:29;;;;;;;6.63;5.25;;;21.80;99.90;;;;;;5097242;28;20036;-74
2022/06/05 08:50:28;;;;;;;5.47;4.88;;;21.80;99.90;;;;;;5098023;28;20028;-74
2022/06/05 08:53:04;;;;;;;7.38;5.15;;;21.90;99.90;;;;;;5095800;28;20032;-75
2022/06/05 08:55:43;;;;;;;6.25;5.05;;;22.00;99.90;;;;;;5095027;28;20035;-75
2022/06/05 08:58:15;;;;;;;5.45;4.95;;;22.00;99.90;;;;;;5094966;28;20480;-75
2022/06/05 09:00:49;;;;;;;6.60;4.80;;;22.00;99.90;;;;;;5084169;27;20032;-74
2022/06/05 09:03:24;;;;;;;5.82;4.50;;;22.00;99.90;;;;;;5096189;27;20031;-74
2022/06/05 09:05:55;;;;;;;5.75;4.68;;;21.90;99.90;;;;;;5096069;28;20027;-74
2022/06/05 09:08:24;;;;;;;7.10;4.18;;;22.00;99.90;;;;;;5087995;28;20028;-74
2022/06/05 09:10:55;;;;;;;6.95;4.72;;;22.10;99.90;;;;;;5097218;27;20038;-75
2022/06/05 09:13:30;;;;;;;7.00;4.60;;;22.20;99.90;;;;;;5095962;28;20070;-75
2022/06/05 09:15:59;;;;;;;6.88;4.97;;;22.30;99.90;;;;;;5110287;28;20092;-75
2022/06/05 09:18:31;;;;;;;6.15;4.85;;;22.30;99.90;;;;;;5100583;28;20024;-74
2022/06/05 09:21:00;;;;;;;6.53;5.57;;;22.40;99.90;;;;;;5116309;27;20054;-74
2022/06/05 09:23:31;;;;;;;6.75;5.55;;;22.30;99.90;;;;;;5134337;27;20027;-75
2022/06/05 09:26:03;;;;;;;;;;;22.30;99.90;;;;;;5136100;27;20043;-75
2022/06/05 09:28:51;;;;;;;9.98;5.60;;;22.20;99.90;;;;;;5131927;27;20504;-75
2022/06/05 09:31:54;;;;;;;9.13;6.55;;;22.30;99.90;;;;;;5099915;27;20053;-74
2022/06/05 09:34:28;;;;;;;10.45;6.43;;;22.40;99.90;;;;;;5127259;27;20067;-74
2022/06/05 09:37:02;;;;;;;8.15;6.25;;;22.60;99.90;;;;;;5128342;27;20023;-76
2022/06/05 09:39:35;;;;;;;7.65;6.28;;;22.70;99.90;;;;;;5110580;28;20043;-77
2022/06/05 09:42:14;;;;;;;7.88;6.25;;;22.80;99.90;;;;;;5113920;28;20038;-76
2022/06/05 09:44:59;;;;;;;11.40;8.07;;;22.90;99.90;;;;;;5107010;28;20495;-76
2022/06/05 09:47:47;;;;;;;10.35;8.43;;;22.90;99.90;;;;;;5121111;27;20034;-74
2022/06/05 09:50:25;;;;;;;8.95;7.93;;;23.00;99.90;;;;;;5124059;27;20035;-75
2022/06/05 09:52:52;;;;;;;11.27;9.00;;;23.00;99.90;;;;;;5123820;27;20075;-74
2022/06/05 09:55:22;;;;;;;11.98;8.43;;;22.90;99.90;;;;;;5121942;27;20061;-75
2022/06/05 09:58:25;;;;;;;9.13;7.88;;;22.80;99.90;;;;;;5119988;27;20387;-75
2022/06/05 10:00:54;;;;;;;11.13;8.57;;;22.80;99.90;;;;;;5120941;27;20035;-76
2022/06/05 10:03:36;;;;;;;11.32;9.32;;;22.80;99.90;;;;;;5124024;27;20020;-76
2022/06/05 10:06:24;;;;;;;12.10;8.95;;;22.80;99.90;;;;;;5120790;27;20023;-77
2022/06/05 10:09:05;;;;;;;11.23;8.75;;;22.90;99.90;;;;;;5105594;27;20070;-77
2022/06/05 10:11:54;;;;;;;12.02;9.35;;;23.00;99.90;;;;;;5107425;28;20055;-77
2022/06/05 10:14:42;;;;;;;11.48;9.07;;;23.00;99.90;;;;;;5119271;27;20056;-76
2022/06/05 10:17:20;;;;;;;12.30;8.40;;;23.00;99.90;;;;;;5085639;27;20494;-74
2022/06/05 10:20:01;;;;;;;10.85;8.52;;;23.10;99.90;;;;;;5111025;27;20027;-76
2022/06/05 10:22:31;;;;;;;9.63;7.90;;;23.20;99.90;;;;;;5096413;28;20073;-77
2022/06/05 10:25:15;;;;;;;11.35;7.75;;;23.30;99.90;;;;;;5096632;28;20063;-75
2022/06/05 10:27:53;;;;;;;11.52;7.78;;;23.50;99.90;;;;;;5114168;28;20031;-76
2022/06/05 10:30:21;;;;;;;7.63;6.63;;;23.60;99.90;;;;;;5114085;28;20020;-79
2022/06/05 10:33:09;;;;;;;7.43;6.45;;;23.60;99.90;;;;;;5123398;27;20035;-77
2022/06/05 10:36:01;;;;;;;7.38;6.28;;;23.70;99.90;;;;;;5120560;27;20049;-76
2022/06/05 10:38:42;;;;;;;8.25;6.22;;;23.80;99.90;;;;;;5098744;28;20454;-75
2022/06/05 10:41:44;;;;;;;6.97;6.27;;;23.80;99.90;;;;;;5104961;28;20035;-76
2022/06/05 10:44:18;;;;;;;9.18;6.75;;;23.90;99.90;;;;;;5086361;28;20311;-78
2022/06/05 10:46:57;;;;;;;8.30;6.15;;;23.90;99.90;;;;;;5081218;28;20028;-76
2022/06/05 10:49:56;;;;;;;12.50;6.85;;;24.10;99.90;;;;;;5111989;27;20469;-76
2022/06/05 10:52:46;;;;;;;11.25;7.32;;;24.20;99.90;;;;;;5105609;28;20020;-77
2022/06/05 10:55:17;;;;;;;14.45;7.45;;;24.20;99.90;;;;;;5086210;28;20039;-77
2022/06/05 10:58:06;;;;;;;;;;;24.20;99.90;;;;;;5104816;28;20020;-77
2022/06/05 11:00:44;;;;;;;7.75;4.80;;;24.20;99.90;;;;;;5096608;28;19957;-80
2022/06/05 11:03:37;;;;;;;7.32;4.57;;;24.10;99.90;;;;;;5113296;28;20031;-77
2022/06/05 11:06:27;;;;;;;8.68;4.82;;;24.10;99.90;;;;;;5095701;28;20031;-77
2022/06/05 11:09:38;;;;;;;7.32;4.47;;;24.10;99.90;;;;;;5109142;27;20024;-75
2022/06/05 11:15:18;;;;;;;6.57;4.97;;;24.00;99.90;;;;;;5101447;28;20042;-75
2022/06/05 11:18:25;;;;;;;10.82;4.93;;;24.00;99.90;;;;;;5095137;28;20034;-75
2022/06/05 11:20:57;;;;;;;7.57;4.43;;;23.90;99.90;;;;;;5020156;28;20033;-75
2022/06/05 11:23:28;;;;;;;7.32;4.70;;;24.10;99.90;;;;;;5030072;28;20029;-75
2022/06/05 11:26:23;;;;;;;5.13;4.50;;;24.30;99.90;;;;;;5079062;28;20044;-75
2022/06/05 11:29:27;;;;;;;8.30;5.00;;;24.50;99.90;;;;;;5081349;28;20372;-78
2022/06/05 11:32:21;;;;;;;7.57;4.50;;;24.70;99.90;;;;;;5108078;28;20432;-77
2022/06/05 11:35:22;;;;;;;6.70;4.85;;;24.80;99.90;;;;;;5080803;28;20154;-77
2022/06/05 11:38:12;;;;;;;9.20;5.40;;;25.10;99.90;;;;;;5073933;28;20074;-77
2022/06/05 11:40:45;;;;;;;6.45;4.65;;;25.10;99.90;;;;;;5079725;28;20264;-77
2022/06/05 11:43:31;;;;;;;9.27;4.60;;;24.90;99.90;;;;;;5094804;28;20077;-77
2022/06/05 11:46:18;;;;;;;3.35;1.80;;;24.80;99.90;;;;;;5095070;28;20047;-75
2022/06/05 11:49:05;;;;;;;2.60;1.50;;;24.50;99.90;;;;;;5095555;28;20024;-77
2022/06/05 11:51:37;;;;;;;1.00;0.90;;;24.20;99.90;;;;;;5111905;28;20019;-76
2022/06/05 11:54:19;;;;;;;1.38;0.60;;;23.90;99.90;;;;;;5088482;28;20457;-77
2022/06/05 11:56:54;;;;;;;1.75;0.90;;;23.70;99.90;;;;;;5087055;28;20035;-76
2022/06/05 11:59:39;;;;;;;1.83;0.90;;;23.50;99.90;;;;;;5104678;28;20028;-76
2022/06/05 12:02:22;;;;;;;2.35;0.98;;;23.40;99.90;;;;;;5091239;28;20023;-76
2022/06/05 12:05:00;;;;;;;5.10;1.77;;;23.20;99.90;;;;;;5082370;28;20036;-77
2022/06/05 12:07:27;;;;;;;6.18;1.50;;;22.90;99.90;;;;;;5099840;28;20032;-77
2022/06/05 12:10:01;;;;;;;4.70;1.73;;;22.80;99.90;;;;;;5098055;28;20027;-76
2022/06/05 12:12:31;;;;;;;4.20;1.40;;;22.60;99.90;;;;;;5094635;28;20020;-76
2022/06/05 12:15:15;;;;;;;3.27;1.33;;;22.70;99.90;;;;;;5112592;28;20540;-76
2022/06/05 12:18:04;;;;;;;2.00;1.58;;;22.80;99.90;;;;;;5113024;28;20039;-76
2022/06/05 12:20:40;;;;;;;3.20;1.45;;;22.80;99.90;;;;;;5094330;28;20387;-75
2022/06/05 12:23:28;;;;;;;3.50;1.40;;;22.90;99.90;;;;;;5094751;28;20034;-76
2022/06/05 12:26:11;;;;;;;2.33;1.40;;;22.90;99.90;;;;;;5112740;28;20110;-76
2022/06/05 12:28:42;;;;;;;4.40;1.38;;;22.80;99.90;;;;;;5079063;28;20020;-76
2022/06/05 12:31:22;;;;;;;3.65;1.63;;;22.70;99.90;;;;;;5112306;28;20463;-76
2022/06/05 12:34:16;;;;;;;3.20;1.20;;;22.80;99.90;;;;;;5112577;28;20023;-76
2022/06/05 12:36:59;;;;;;;3.35;1.40;;;22.60;99.90;;;;;;5097490;28;20039;-76
2022/06/05 12:39:31;;;;;;;4.07;1.35;;;22.60;99.90;;;;;;5102962;28;20051;-76
2022/06/05 12:42:15;;;;;;;2.63;1.02;;;22.50;99.90;;;;;;5094605;28;20023;-76
2022/06/05 12:44:52;;;;;;;2.78;1.25;;;22.60;99.90;;;;;;5097262;28;20023;-76
2022/06/05 12:47:34;;;;;;;2.70;0.90;;;22.50;99.90;;;;;;5093926;28;20028;-76
2022/06/05 12:50:19;;;;;;;2.55;1.40;;;22.50;99.90;;;;;;5095384;28;20032;-76
2022/06/05 12:53:27;;;;;;;1.10;0.93;;;22.70;99.90;;;;;;5082660;28;20027;-76
2022/06/05 12:56:10;;;;;;;4.43;1.30;;;22.90;99.90;;;;;;5067590;28;20106;-76
2022/06/05 12:58:47;;;;;;;3.88;1.30;;;23.30;99.90;;;;;;5082120;28;20051;-76
2022/06/05 13:01:26;;;;;;;2.45;1.10;;;23.40;99.90;;;;;;5115359;28;20076;-76
2022/06/05 13:04:20;;;;;;;2.00;1.00;;;23.40;99.90;;;;;;5097996;27;20028;-76
2022/06/05 13:07:03;;;;;;;3.78;1.55;;;23.20;99.90;;;;;;5110925;27;20030;-77
2022/06/05 13:09:48;;;;;;;2.33;1.38;;;23.00;99.90;;;;;;5092581;27;20038;-76
2022/06/05 13:12:23;;;;;;;2.28;1.40;;;22.90;99.90;;;;;;5080408;28;20067;-78
2022/06/05 13:15:13;;;;;;;2.88;1.20;;;22.80;99.90;;;;;;5113594;28;20040;-76
2022/06/05 13:17:45;;;;;;;1.73;1.38;;;22.80;99.90;;;;;;5115729;28;20384;-75
2022/06/05 13:20:49;;;;;;;1.77;1.27;;;22.90;99.90;;;;;;5112760;28;20038;-74
2022/06/05 13:23:44;;;;;;;2.03;1.20;;;23.20;99.90;;;;;;5106473;27;20477;-73
2022/06/05 13:26:46;;;;;;;1.55;1.23;;;23.30;99.90;;;;;;5103435;28;20040;-73
2022/06/05 13:29:38;;;;;;;1.60;1.08;;;23.50;99.90;;;;;;5121301;27;20372;-74
2022/06/05 13:32:23;;;;;;;2.38;1.25;;;23.60;99.90;;;;;;5126269;27;20034;-72
2022/06/05 13:34:56;;;;;;;2.55;1.40;;;23.70;99.90;;;;;;5107007;27;20043;-74